sensor_id;sensor_type;location;lat;lon;timestamp;P1;durP1;ratioP1;P2;durP2;ratioP2
51304;SDS011;37392;50.964;6.952;2023-02-04T00:01:23;23.92;;;4.75;;
51304;SDS011;37392;50.964;6.952;2023-02-04T00:03:48;24.80;;;4.40;;
51304;SDS011;37392;50.964;6.952;2023-02-04T00:06:14;37.47;;;5.28;;
51304;SDS011;37392;50.964;6.952;2023-02-04T00:08:40;26.00;;;5.32;;
51304;SDS011;37392;50.964;6.952;2023-02-04T00:11:05;26.80;;;4.55;;
51304;SDS011;37392;50.964;6.952;2023-02-04T00:13:31;29.60;;;4.65;;
51304;SDS011;37392;50.964;6.952;2023-02-04T00:16:03;27.48;;;4.65;;
51304;SDS011;37392;50.964;6.952;2023-02-04T00:18:28;24.27;;;4.35;;
51304;SDS011;37392;50.964;6.952;2023-02-04T00:20:54;27.95;;;5.32;;
51304;SDS011;37392;50.964;6.952;2023-02-04T00:23:19;40.25;;;5.55;;
51304;SDS011;37392;50.964;6.952;2023-02-04T00:25:45;37.88;;;4.97;;
51304;SDS011;37392;50.964;6.952;2023-02-04T00:28:11;27.23;;;4.53;;
51304;SDS011;37392;50.964;6.952;2023-02-04T00:30:36;20.20;;;4.35;;
51304;SDS011;37392;50.964;6.952;2023-02-04T00:33:02;40.30;;;5.53;;
51304;SDS011;37392;50.964;6.952;2023-02-04T00:35:28;39.55;;;5.68;;
51304;SDS011;37392;50.964;6.952;2023-02-04T00:40:21;27.77;;;4.70;;
51304;SDS011;37392;50.964;6.952;2023-02-04T00:42:47;29.33;;;4.70;;
51304;SDS011;37392;50.964;6.952;2023-02-04T00:45:12;31.30;;;4.15;;
51304;SDS011;37392;50.964;6.952;2023-02-04T00:47:38;25.50;;;4.20;;
51304;SDS011;37392;50.964;6.952;2023-02-04T00:50:04;37.50;;;5.35;;
51304;SDS011;37392;50.964;6.952;2023-02-04T00:52:30;32.17;;;4.78;;
51304;SDS011;37392;50.964;6.952;2023-02-04T00:54:55;18.23;;;4.72;;
51304;SDS011;37392;50.964;6.952;2023-02-04T00:57:21;38.70;;;5.93;;
51304;SDS011;37392;50.964;6.952;2023-02-04T00:59:47;31.33;;;5.88;;
51304;SDS011;37392;50.964;6.952;2023-02-04T01:02:12;34.55;;;6.20;;
51304;SDS011;37392;50.964;6.952;2023-02-04T01:04:38;24.90;;;5.22;;
51304;SDS011;37392;50.964;6.952;2023-02-04T01:07:03;39.22;;;5.90;;
51304;SDS011;37392;50.964;6.952;2023-02-04T01:09:29;24.67;;;6.20;;
51304;SDS011;37392;50.964;6.952;2023-02-04T01:11:55;28.48;;;4.00;;
51304;SDS011;37392;50.964;6.952;2023-02-04T01:14:21;34.95;;;5.07;;
51304;SDS011;37392;50.964;6.952;2023-02-04T01:16:46;24.50;;;4.85;;
51304;SDS011;37392;50.964;6.952;2023-02-04T01:19:12;32.03;;;5.63;;
51304;SDS011;37392;50.964;6.952;2023-02-04T01:21:38;37.50;;;7.43;;
51304;SDS011;37392;50.964;6.952;2023-02-04T01:24:03;32.28;;;5.18;;
51304;SDS011;37392;50.964;6.952;2023-02-04T01:26:29;30.90;;;5.25;;
51304;SDS011;37392;50.964;6.952;2023-02-04T01:28:55;32.63;;;5.10;;
51304;SDS011;37392;50.964;6.952;2023-02-04T01:31:21;32.20;;;5.18;;
51304;SDS011;37392;50.964;6.952;2023-02-04T01:33:46;38.55;;;8.27;;
51304;SDS011;37392;50.964;6.952;2023-02-04T01:36:12;28.88;;;6.22;;
51304;SDS011;37392;50.964;6.952;2023-02-04T01:38:37;38.40;;;5.20;;
51304;SDS011;37392;50.964;6.952;2023-02-04T01:41:04;42.38;;;5.25;;
51304;SDS011;37392;50.964;6.952;2023-02-04T01:43:30;44.00;;;5.65;;
51304;SDS011;37392;50.964;6.952;2023-02-04T01:46:02;26.50;;;3.75;;
51304;SDS011;37392;50.964;6.952;2023-02-04T01:48:28;40.10;;;5.15;;
51304;SDS011;37392;50.964;6.952;2023-02-04T01:51:04;29.05;;;4.68;;
51304;SDS011;37392;50.964;6.952;2023-02-04T01:53:39;30.05;;;5.22;;
51304;SDS011;37392;50.964;6.952;2023-02-04T01:56:14;33.78;;;6.40;;
51304;SDS011;37392;50.964;6.952;2023-02-04T01:58:43;26.30;;;6.22;;
51304;SDS011;37392;50.964;6.952;2023-02-04T02:01:10;28.42;;;6.50;;
51304;SDS011;37392;50.964;6.952;2023-02-04T02:03:39;42.83;;;5.40;;
51304;SDS011;37392;50.964;6.952;2023-02-04T02:06:06;23.80;;;5.57;;
51304;SDS011;37392;50.964;6.952;2023-02-04T02:08:33;40.33;;;7.05;;
51304;SDS011;37392;50.964;6.952;2023-02-04T02:11:00;36.63;;;4.78;;
51304;SDS011;37392;50.964;6.952;2023-02-04T02:13:26;24.52;;;4.05;;
51304;SDS011;37392;50.964;6.952;2023-02-04T02:15:52;34.03;;;4.50;;
51304;SDS011;37392;50.964;6.952;2023-02-04T02:18:18;31.38;;;5.68;;
51304;SDS011;37392;50.964;6.952;2023-02-04T02:20:43;34.88;;;4.75;;
51304;SDS011;37392;50.964;6.952;2023-02-04T02:23:14;31.52;;;4.57;;
51304;SDS011;37392;50.964;6.952;2023-02-04T02:25:48;37.15;;;6.22;;
51304;SDS011;37392;50.964;6.952;2023-02-04T02:28:16;39.65;;;5.50;;
51304;SDS011;37392;50.964;6.952;2023-02-04T02:30:45;37.30;;;5.45;;
51304;SDS011;37392;50.964;6.952;2023-02-04T02:33:13;29.42;;;4.30;;
51304;SDS011;37392;50.964;6.952;2023-02-04T02:35:42;31.10;;;4.28;;
51304;SDS011;37392;50.964;6.952;2023-02-04T02:38:12;49.10;;;6.23;;
51304;SDS011;37392;50.964;6.952;2023-02-04T02:40:39;41.78;;;6.85;;
51304;SDS011;37392;50.964;6.952;2023-02-04T02:43:05;18.48;;;4.28;;
51304;SDS011;37392;50.964;6.952;2023-02-04T02:45:34;26.15;;;4.95;;
51304;SDS011;37392;50.964;6.952;2023-02-04T02:48:00;27.13;;;4.13;;
51304;SDS011;37392;50.964;6.952;2023-02-04T02:50:29;33.60;;;4.28;;
51304;SDS011;37392;50.964;6.952;2023-02-04T02:52:57;31.77;;;7.55;;
51304;SDS011;37392;50.964;6.952;2023-02-04T02:55:24;22.30;;;3.67;;
51304;SDS011;37392;50.964;6.952;2023-02-04T02:57:51;25.75;;;5.70;;
51304;SDS011;37392;50.964;6.952;2023-02-04T03:00:20;19.20;;;4.07;;
51304;SDS011;37392;50.964;6.952;2023-02-04T03:02:53;35.38;;;4.75;;
51304;SDS011;37392;50.964;6.952;2023-02-04T03:05:32;34.90;;;5.13;;
51304;SDS011;37392;50.964;6.952;2023-02-04T03:08:04;23.95;;;3.92;;
51304;SDS011;37392;50.964;6.952;2023-02-04T03:10:31;21.27;;;4.18;;
51304;SDS011;37392;50.964;6.952;2023-02-04T03:12:57;35.95;;;7.05;;
51304;SDS011;37392;50.964;6.952;2023-02-04T03:15:24;33.88;;;4.93;;
51304;SDS011;37392;50.964;6.952;2023-02-04T03:17:50;36.03;;;5.47;;
51304;SDS011;37392;50.964;6.952;2023-02-04T03:20:20;26.80;;;4.37;;
51304;SDS011;37392;50.964;6.952;2023-02-04T03:22:49;28.95;;;4.47;;
51304;SDS011;37392;50.964;6.952;2023-02-04T03:25:15;20.15;;;4.30;;
51304;SDS011;37392;50.964;6.952;2023-02-04T03:27:41;29.25;;;4.55;;
51304;SDS011;37392;50.964;6.952;2023-02-04T03:30:07;36.22;;;4.57;;
51304;SDS011;37392;50.964;6.952;2023-02-04T03:32:33;20.00;;;4.20;;
51304;SDS011;37392;50.964;6.952;2023-02-04T03:34:59;47.22;;;5.72;;
51304;SDS011;37392;50.964;6.952;2023-02-04T03:37:25;44.20;;;4.82;;
51304;SDS011;37392;50.964;6.952;2023-02-04T03:39:50;20.58;;;5.15;;
51304;SDS011;37392;50.964;6.952;2023-02-04T03:42:16;32.53;;;6.75;;
51304;SDS011;37392;50.964;6.952;2023-02-04T03:44:42;32.83;;;5.72;;
51304;SDS011;37392;50.964;6.952;2023-02-04T03:47:08;30.92;;;4.53;;
51304;SDS011;37392;50.964;6.952;2023-02-04T03:49:33;24.95;;;3.97;;
51304;SDS011;37392;50.964;6.952;2023-02-04T03:52:00;34.10;;;5.30;;
51304;SDS011;37392;50.964;6.952;2023-02-04T03:54:28;23.67;;;4.15;;
51304;SDS011;37392;50.964;6.952;2023-02-04T03:56:54;27.95;;;5.40;;
51304;SDS011;37392;50.964;6.952;2023-02-04T03:59:19;21.20;;;4.28;;
51304;SDS011;37392;50.964;6.952;2023-02-04T04:01:45;22.70;;;3.72;;
51304;SDS011;37392;50.964;6.952;2023-02-04T04:04:10;22.02;;;4.45;;
51304;SDS011;37392;50.964;6.952;2023-02-04T04:06:36;24.92;;;4.38;;
51304;SDS011;37392;50.964;6.952;2023-02-04T04:09:02;37.13;;;4.53;;
51304;SDS011;37392;50.964;6.952;2023-02-04T04:11:28;25.25;;;4.60;;
51304;SDS011;37392;50.964;6.952;2023-02-04T04:13:55;26.55;;;4.65;;
51304;SDS011;37392;50.964;6.952;2023-02-04T04:16:20;38.75;;;4.97;;
51304;SDS011;37392;50.964;6.952;2023-02-04T04:18:46;22.63;;;3.92;;
51304;SDS011;37392;50.964;6.952;2023-02-04T04:21:12;31.65;;;5.57;;
51304;SDS011;37392;50.964;6.952;2023-02-04T04:23:37;27.30;;;4.80;;
51304;SDS011;37392;50.964;6.952;2023-02-04T04:26:03;29.15;;;4.50;;
51304;SDS011;37392;50.964;6.952;2023-02-04T04:28:28;34.10;;;4.90;;
51304;SDS011;37392;50.964;6.952;2023-02-04T04:30:54;49.03;;;5.75;;
51304;SDS011;37392;50.964;6.952;2023-02-04T04:33:20;27.67;;;5.32;;
51304;SDS011;37392;50.964;6.952;2023-02-04T04:35:46;29.48;;;4.38;;
51304;SDS011;37392;50.964;6.952;2023-02-04T04:38:11;27.63;;;5.15;;
51304;SDS011;37392;50.964;6.952;2023-02-04T04:40:37;34.65;;;6.38;;
51304;SDS011;37392;50.964;6.952;2023-02-04T04:43:03;26.25;;;5.05;;
51304;SDS011;37392;50.964;6.952;2023-02-04T04:45:28;40.45;;;5.35;;
51304;SDS011;37392;50.964;6.952;2023-02-04T04:47:54;28.20;;;5.63;;
51304;SDS011;37392;50.964;6.952;2023-02-04T04:50:19;28.35;;;5.93;;
51304;SDS011;37392;50.964;6.952;2023-02-04T04:52:45;25.83;;;4.53;;
51304;SDS011;37392;50.964;6.952;2023-02-04T04:55:11;34.67;;;4.97;;
51304;SDS011;37392;50.964;6.952;2023-02-04T04:57:37;42.00;;;5.57;;
51304;SDS011;37392;50.964;6.952;2023-02-04T05:00:03;26.13;;;4.47;;
51304;SDS011;37392;50.964;6.952;2023-02-04T05:02:31;26.73;;;4.43;;
51304;SDS011;37392;50.964;6.952;2023-02-04T05:04:56;22.15;;;3.83;;
51304;SDS011;37392;50.964;6.952;2023-02-04T05:07:22;30.42;;;3.88;;
51304;SDS011;37392;50.964;6.952;2023-02-04T05:09:47;36.25;;;4.80;;
51304;SDS011;37392;50.964;6.952;2023-02-04T05:12:13;28.88;;;4.88;;
51304;SDS011;37392;50.964;6.952;2023-02-04T05:14:39;21.42;;;4.05;;
51304;SDS011;37392;50.964;6.952;2023-02-04T05:17:04;31.58;;;4.65;;
51304;SDS011;37392;50.964;6.952;2023-02-04T05:19:30;27.35;;;5.05;;
51304;SDS011;37392;50.964;6.952;2023-02-04T05:21:55;30.45;;;5.20;;
51304;SDS011;37392;50.964;6.952;2023-02-04T05:24:21;30.92;;;5.03;;
51304;SDS011;37392;50.964;6.952;2023-02-04T05:26:47;25.83;;;3.95;;
51304;SDS011;37392;50.964;6.952;2023-02-04T05:29:13;23.67;;;4.32;;
51304;SDS011;37392;50.964;6.952;2023-02-04T05:31:38;25.70;;;4.38;;
51304;SDS011;37392;50.964;6.952;2023-02-04T05:34:04;22.27;;;3.67;;
51304;SDS011;37392;50.964;6.952;2023-02-04T05:36:29;29.60;;;6.38;;
51304;SDS011;37392;50.964;6.952;2023-02-04T05:38:55;25.30;;;5.03;;
51304;SDS011;37392;50.964;6.952;2023-02-04T05:41:20;32.13;;;3.92;;
51304;SDS011;37392;50.964;6.952;2023-02-04T05:43:46;26.38;;;5.00;;
51304;SDS011;37392;50.964;6.952;2023-02-04T05:46:12;21.42;;;3.85;;
51304;SDS011;37392;50.964;6.952;2023-02-04T05:48:38;21.65;;;5.40;;
51304;SDS011;37392;50.964;6.952;2023-02-04T05:51:04;19.38;;;3.67;;
51304;SDS011;37392;50.964;6.952;2023-02-04T05:53:30;29.65;;;4.50;;
51304;SDS011;37392;50.964;6.952;2023-02-04T05:55:56;30.52;;;4.57;;
51304;SDS011;37392;50.964;6.952;2023-02-04T05:58:21;30.58;;;4.82;;
51304;SDS011;37392;50.964;6.952;2023-02-04T06:00:47;29.77;;;6.15;;
51304;SDS011;37392;50.964;6.952;2023-02-04T06:03:13;50.08;;;5.70;;
51304;SDS011;37392;50.964;6.952;2023-02-04T06:05:38;25.73;;;5.03;;
51304;SDS011;37392;50.964;6.952;2023-02-04T06:08:04;32.33;;;5.47;;
51304;SDS011;37392;50.964;6.952;2023-02-04T06:10:30;33.85;;;5.30;;
51304;SDS011;37392;50.964;6.952;2023-02-04T06:12:56;25.27;;;4.80;;
51304;SDS011;37392;50.964;6.952;2023-02-04T06:15:22;32.40;;;4.47;;
51304;SDS011;37392;50.964;6.952;2023-02-04T06:17:48;32.72;;;6.18;;
51304;SDS011;37392;50.964;6.952;2023-02-04T06:20:13;33.10;;;4.90;;
51304;SDS011;37392;50.964;6.952;2023-02-04T06:22:39;29.73;;;4.72;;
51304;SDS011;37392;50.964;6.952;2023-02-04T06:25:05;24.15;;;5.88;;
51304;SDS011;37392;50.964;6.952;2023-02-04T06:27:31;23.50;;;4.78;;
51304;SDS011;37392;50.964;6.952;2023-02-04T06:29:57;34.25;;;5.60;;
51304;SDS011;37392;50.964;6.952;2023-02-04T06:32:22;21.20;;;4.60;;
51304;SDS011;37392;50.964;6.952;2023-02-04T06:34:48;44.78;;;4.45;;
51304;SDS011;37392;50.964;6.952;2023-02-04T06:37:14;35.72;;;4.20;;
51304;SDS011;37392;50.964;6.952;2023-02-04T06:39:41;32.17;;;6.30;;
51304;SDS011;37392;50.964;6.952;2023-02-04T06:42:08;25.25;;;5.30;;
51304;SDS011;37392;50.964;6.952;2023-02-04T06:44:34;30.40;;;5.70;;
51304;SDS011;37392;50.964;6.952;2023-02-04T06:47:00;51.38;;;4.68;;
51304;SDS011;37392;50.964;6.952;2023-02-04T06:49:25;30.30;;;4.68;;
51304;SDS011;37392;50.964;6.952;2023-02-04T06:51:51;34.70;;;5.50;;
51304;SDS011;37392;50.964;6.952;2023-02-04T06:54:16;25.23;;;4.03;;
51304;SDS011;37392;50.964;6.952;2023-02-04T06:56:42;34.67;;;5.60;;
51304;SDS011;37392;50.964;6.952;2023-02-04T06:59:09;36.70;;;6.80;;
51304;SDS011;37392;50.964;6.952;2023-02-04T07:01:35;27.25;;;4.97;;
51304;SDS011;37392;50.964;6.952;2023-02-04T07:04:00;34.15;;;6.03;;
51304;SDS011;37392;50.964;6.952;2023-02-04T07:06:26;34.97;;;7.13;;
51304;SDS011;37392;50.964;6.952;2023-02-04T07:08:51;35.92;;;5.28;;
51304;SDS011;37392;50.964;6.952;2023-02-04T07:11:17;30.38;;;5.32;;
51304;SDS011;37392;50.964;6.952;2023-02-04T07:13:43;27.65;;;5.43;;
51304;SDS011;37392;50.964;6.952;2023-02-04T07:16:08;29.90;;;5.97;;
51304;SDS011;37392;50.964;6.952;2023-02-04T07:18:34;38.85;;;6.60;;
51304;SDS011;37392;50.964;6.952;2023-02-04T07:21:01;37.83;;;7.18;;
51304;SDS011;37392;50.964;6.952;2023-02-04T07:23:26;21.50;;;4.25;;
51304;SDS011;37392;50.964;6.952;2023-02-04T07:25:53;30.73;;;5.07;;
51304;SDS011;37392;50.964;6.952;2023-02-04T07:28:21;26.52;;;5.10;;
51304;SDS011;37392;50.964;6.952;2023-02-04T07:30:47;29.67;;;5.30;;
51304;SDS011;37392;50.964;6.952;2023-02-04T07:33:13;33.47;;;6.32;;
51304;SDS011;37392;50.964;6.952;2023-02-04T07:35:39;37.40;;;6.68;;
51304;SDS011;37392;50.964;6.952;2023-02-04T07:38:05;34.78;;;5.65;;
51304;SDS011;37392;50.964;6.952;2023-02-04T07:40:31;28.55;;;5.32;;
51304;SDS011;37392;50.964;6.952;2023-02-04T07:42:56;29.98;;;4.88;;
51304;SDS011;37392;50.964;6.952;2023-02-04T07:45:22;29.88;;;6.35;;
51304;SDS011;37392;50.964;6.952;2023-02-04T07:47:48;36.00;;;5.28;;
51304;SDS011;37392;50.964;6.952;2023-02-04T07:50:14;26.75;;;5.88;;
51304;SDS011;37392;50.964;6.952;2023-02-04T07:52:40;33.47;;;6.18;;
51304;SDS011;37392;50.964;6.952;2023-02-04T07:55:06;38.13;;;7.78;;
51304;SDS011;37392;50.964;6.952;2023-02-04T07:57:32;36.45;;;6.82;;
51304;SDS011;37392;50.964;6.952;2023-02-04T07:59:59;37.72;;;10.88;;
51304;SDS011;37392;50.964;6.952;2023-02-04T08:02:25;28.70;;;7.32;;
51304;SDS011;37392;50.964;6.952;2023-02-04T08:04:51;46.05;;;6.03;;
51304;SDS011;37392;50.964;6.952;2023-02-04T08:07:17;38.28;;;6.22;;
51304;SDS011;37392;50.964;6.952;2023-02-04T08:09:43;40.53;;;6.70;;
51304;SDS011;37392;50.964;6.952;2023-02-04T08:12:08;38.92;;;7.85;;
51304;SDS011;37392;50.964;6.952;2023-02-04T08:14:34;28.58;;;6.10;;
51304;SDS011;37392;50.964;6.952;2023-02-04T08:17:02;36.95;;;6.32;;
51304;SDS011;37392;50.964;6.952;2023-02-04T08:19:28;35.67;;;7.90;;
51304;SDS011;37392;50.964;6.952;2023-02-04T08:21:54;45.53;;;7.10;;
51304;SDS011;37392;50.964;6.952;2023-02-04T08:24:19;30.27;;;5.15;;
51304;SDS011;37392;50.964;6.952;2023-02-04T08:26:45;42.78;;;5.78;;
51304;SDS011;37392;50.964;6.952;2023-02-04T08:29:10;42.90;;;6.32;;
51304;SDS011;37392;50.964;6.952;2023-02-04T08:31:36;38.58;;;7.38;;
51304;SDS011;37392;50.964;6.952;2023-02-04T08:34:02;42.72;;;7.82;;
51304;SDS011;37392;50.964;6.952;2023-02-04T08:36:31;36.67;;;8.68;;
51304;SDS011;37392;50.964;6.952;2023-02-04T08:38:56;36.35;;;6.57;;
51304;SDS011;37392;50.964;6.952;2023-02-04T08:41:22;28.80;;;5.65;;
51304;SDS011;37392;50.964;6.952;2023-02-04T08:43:48;36.67;;;6.93;;
51304;SDS011;37392;50.964;6.952;2023-02-04T08:46:13;36.67;;;7.55;;
51304;SDS011;37392;50.964;6.952;2023-02-04T08:48:39;47.20;;;8.95;;
51304;SDS011;37392;50.964;6.952;2023-02-04T08:51:04;41.50;;;8.90;;
51304;SDS011;37392;50.964;6.952;2023-02-04T08:53:30;34.50;;;8.38;;
51304;SDS011;37392;50.964;6.952;2023-02-04T08:55:56;47.78;;;8.32;;
51304;SDS011;37392;50.964;6.952;2023-02-04T08:58:21;51.65;;;7.78;;
51304;SDS011;37392;50.964;6.952;2023-02-04T09:00:47;38.30;;;7.07;;
51304;SDS011;37392;50.964;6.952;2023-02-04T09:03:13;32.13;;;7.00;;
51304;SDS011;37392;50.964;6.952;2023-02-04T09:05:38;43.08;;;8.30;;
51304;SDS011;37392;50.964;6.952;2023-02-04T09:08:04;52.72;;;8.10;;
51304;SDS011;37392;50.964;6.952;2023-02-04T09:10:29;41.50;;;10.13;;
51304;SDS011;37392;50.964;6.952;2023-02-04T09:12:55;39.63;;;9.82;;
51304;SDS011;37392;50.964;6.952;2023-02-04T09:15:22;43.30;;;7.28;;
51304;SDS011;37392;50.964;6.952;2023-02-04T09:17:48;48.05;;;7.07;;
51304;SDS011;37392;50.964;6.952;2023-02-04T09:20:15;40.58;;;7.75;;
51304;SDS011;37392;50.964;6.952;2023-02-04T09:22:41;55.38;;;9.40;;
51304;SDS011;37392;50.964;6.952;2023-02-04T09:25:07;37.22;;;7.03;;
51304;SDS011;37392;50.964;6.952;2023-02-04T09:27:32;34.33;;;8.02;;
51304;SDS011;37392;50.964;6.952;2023-02-04T09:29:58;47.97;;;10.52;;
51304;SDS011;37392;50.964;6.952;2023-02-04T09:32:24;44.72;;;10.43;;
51304;SDS011;37392;50.964;6.952;2023-02-04T09:34:50;31.77;;;7.00;;
51304;SDS011;37392;50.964;6.952;2023-02-04T09:37:16;44.08;;;8.48;;
51304;SDS011;37392;50.964;6.952;2023-02-04T09:39:42;36.75;;;9.93;;
51304;SDS011;37392;50.964;6.952;2023-02-04T09:42:08;28.02;;;6.65;;
51304;SDS011;37392;50.964;6.952;2023-02-04T09:44:37;37.30;;;7.28;;
51304;SDS011;37392;50.964;6.952;2023-02-04T09:47:03;47.92;;;7.90;;
51304;SDS011;37392;50.964;6.952;2023-02-04T09:49:29;39.45;;;9.43;;
51304;SDS011;37392;50.964;6.952;2023-02-04T09:51:56;46.28;;;9.38;;
51304;SDS011;37392;50.964;6.952;2023-02-04T09:54:22;56.63;;;14.40;;
51304;SDS011;37392;50.964;6.952;2023-02-04T09:56:49;50.70;;;9.55;;
51304;SDS011;37392;50.964;6.952;2023-02-04T09:59:20;48.45;;;9.10;;
51304;SDS011;37392;50.964;6.952;2023-02-04T10:01:56;36.45;;;9.90;;
51304;SDS011;37392;50.964;6.952;2023-02-04T10:04:25;39.47;;;8.77;;
51304;SDS011;37392;50.964;6.952;2023-02-04T10:06:52;46.55;;;10.10;;
51304;SDS011;37392;50.964;6.952;2023-02-04T10:09:22;42.97;;;9.33;;
51304;SDS011;37392;50.964;6.952;2023-02-04T10:11:48;38.53;;;11.02;;
51304;SDS011;37392;50.964;6.952;2023-02-04T10:14:15;46.42;;;9.32;;
51304;SDS011;37392;50.964;6.952;2023-02-04T10:16:46;43.80;;;9.63;;
51304;SDS011;37392;50.964;6.952;2023-02-04T10:19:19;35.88;;;8.30;;
51304;SDS011;37392;50.964;6.952;2023-02-04T10:21:45;56.25;;;11.02;;
51304;SDS011;37392;50.964;6.952;2023-02-04T10:24:18;45.00;;;9.05;;
51304;SDS011;37392;50.964;6.952;2023-02-04T10:26:49;53.10;;;10.70;;
51304;SDS011;37392;50.964;6.952;2023-02-04T10:29:16;52.67;;;11.98;;
51304;SDS011;37392;50.964;6.952;2023-02-04T10:31:47;58.38;;;12.63;;
51304;SDS011;37392;50.964;6.952;2023-02-04T10:34:33;36.67;;;9.48;;
51304;SDS011;37392;50.964;6.952;2023-02-04T10:37:22;52.53;;;12.20;;
51304;SDS011;37392;50.964;6.952;2023-02-04T10:39:47;37.92;;;11.80;;
51304;SDS011;37392;50.964;6.952;2023-02-04T10:42:21;65.90;;;15.90;;
51304;SDS011;37392;50.964;6.952;2023-02-04T10:44:52;45.25;;;11.63;;
51304;SDS011;37392;50.964;6.952;2023-02-04T10:51:09;61.75;;;14.13;;
51304;SDS011;37392;50.964;6.952;2023-02-04T10:54:59;74.13;;;16.20;;
51304;SDS011;37392;50.964;6.952;2023-02-04T11:26:08;56.20;;;14.98;;
51304;SDS011;37392;50.964;6.952;2023-02-04T11:40:26;57.88;;;21.00;;
51304;SDS011;37392;50.964;6.952;2023-02-04T11:43:11;52.17;;;13.98;;
51304;SDS011;37392;50.964;6.952;2023-02-04T11:45:40;50.08;;;12.90;;
51304;SDS011;37392;50.964;6.952;2023-02-04T11:48:17;41.20;;;12.80;;
51304;SDS011;37392;50.964;6.952;2023-02-04T11:51:00;55.42;;;12.68;;
51304;SDS011;37392;50.964;6.952;2023-02-04T11:53:28;51.08;;;12.32;;
51304;SDS011;37392;50.964;6.952;2023-02-04T11:55:58;69.30;;;20.17;;
51304;SDS011;37392;50.964;6.952;2023-02-04T11:58:24;58.50;;;14.43;;
51304;SDS011;37392;50.964;6.952;2023-02-04T12:00:53;50.15;;;12.95;;
51304;SDS011;37392;50.964;6.952;2023-02-04T12:03:23;55.50;;;13.57;;
51304;SDS011;37392;50.964;6.952;2023-02-04T12:05:51;61.90;;;14.57;;
51304;SDS011;37392;50.964;6.952;2023-02-04T12:10:48;49.97;;;13.98;;
51304;SDS011;37392;50.964;6.952;2023-02-04T12:13:57;52.08;;;12.13;;
51304;SDS011;37392;50.964;6.952;2023-02-04T12:16:24;52.28;;;11.88;;
51304;SDS011;37392;50.964;6.952;2023-02-04T12:18:50;54.45;;;10.65;;
51304;SDS011;37392;50.964;6.952;2023-02-04T12:21:16;55.35;;;13.30;;
51304;SDS011;37392;50.964;6.952;2023-02-04T12:23:43;39.85;;;10.75;;
51304;SDS011;37392;50.964;6.952;2023-02-04T12:26:09;51.38;;;13.20;;
51304;SDS011;37392;50.964;6.952;2023-02-04T12:28:35;45.80;;;10.65;;
51304;SDS011;37392;50.964;6.952;2023-02-04T12:31:01;48.13;;;9.85;;
51304;SDS011;37392;50.964;6.952;2023-02-04T12:33:28;41.67;;;9.77;;
51304;SDS011;37392;50.964;6.952;2023-02-04T12:35:54;41.38;;;10.95;;
51304;SDS011;37392;50.964;6.952;2023-02-04T12:38:20;37.97;;;10.23;;
51304;SDS011;37392;50.964;6.952;2023-02-04T12:40:46;46.55;;;8.75;;
51304;SDS011;37392;50.964;6.952;2023-02-04T12:43:11;40.38;;;10.98;;
51304;SDS011;37392;50.964;6.952;2023-02-04T12:45:37;48.50;;;11.10;;
51304;SDS011;37392;50.964;6.952;2023-02-04T12:48:04;43.00;;;9.75;;
51304;SDS011;37392;50.964;6.952;2023-02-04T12:50:30;40.65;;;9.77;;
51304;SDS011;37392;50.964;6.952;2023-02-04T12:52:56;55.25;;;12.48;;
51304;SDS011;37392;50.964;6.952;2023-02-04T12:55:23;49.63;;;10.50;;
51304;SDS011;37392;50.964;6.952;2023-02-04T12:57:51;50.92;;;10.52;;
51304;SDS011;37392;50.964;6.952;2023-02-04T13:00:18;51.38;;;11.35;;
51304;SDS011;37392;50.964;6.952;2023-02-04T13:02:45;48.50;;;10.98;;
51304;SDS011;37392;50.964;6.952;2023-02-04T13:05:14;40.38;;;9.27;;
51304;SDS011;37392;50.964;6.952;2023-02-04T13:07:42;37.88;;;9.73;;
51304;SDS011;37392;50.964;6.952;2023-02-04T13:10:08;44.25;;;10.30;;
51304;SDS011;37392;50.964;6.952;2023-02-04T13:12:37;43.35;;;9.38;;
51304;SDS011;37392;50.964;6.952;2023-02-04T13:15:04;40.15;;;9.18;;
51304;SDS011;37392;50.964;6.952;2023-02-04T13:17:31;40.00;;;10.73;;
51304;SDS011;37392;50.964;6.952;2023-02-04T13:19:57;46.45;;;9.80;;
51304;SDS011;37392;50.964;6.952;2023-02-04T13:22:24;36.83;;;9.88;;
51304;SDS011;37392;50.964;6.952;2023-02-04T13:24:50;43.72;;;10.10;;
51304;SDS011;37392;50.964;6.952;2023-02-04T13:27:16;51.17;;;9.57;;
51304;SDS011;37392;50.964;6.952;2023-02-04T13:29:42;56.83;;;10.75;;
51304;SDS011;37392;50.964;6.952;2023-02-04T13:32:08;54.33;;;9.63;;
51304;SDS011;37392;50.964;6.952;2023-02-04T13:34:35;48.75;;;9.45;;
51304;SDS011;37392;50.964;6.952;2023-02-04T13:37:00;31.10;;;7.00;;
51304;SDS011;37392;50.964;6.952;2023-02-04T13:39:26;34.53;;;8.43;;
51304;SDS011;37392;50.964;6.952;2023-02-04T13:41:52;44.30;;;7.95;;
51304;SDS011;37392;50.964;6.952;2023-02-04T13:44:20;44.15;;;7.88;;
51304;SDS011;37392;50.964;6.952;2023-02-04T13:46:46;31.08;;;7.50;;
51304;SDS011;37392;50.964;6.952;2023-02-04T13:49:12;43.65;;;10.23;;
51304;SDS011;37392;50.964;6.952;2023-02-04T13:51:38;28.08;;;6.80;;
51304;SDS011;37392;50.964;6.952;2023-02-04T13:54:04;38.58;;;8.10;;
51304;SDS011;37392;50.964;6.952;2023-02-04T13:56:29;29.00;;;7.75;;
51304;SDS011;37392;50.964;6.952;2023-02-04T13:58:57;37.10;;;7.85;;
51304;SDS011;37392;50.964;6.952;2023-02-04T14:01:23;34.10;;;9.00;;
51304;SDS011;37392;50.964;6.952;2023-02-04T14:03:50;45.67;;;8.48;;
51304;SDS011;37392;50.964;6.952;2023-02-04T14:06:19;37.80;;;9.50;;
51304;SDS011;37392;50.964;6.952;2023-02-04T14:08:57;42.60;;;8.73;;
51304;SDS011;37392;50.964;6.952;2023-02-04T14:11:36;32.92;;;6.93;;
51304;SDS011;37392;50.964;6.952;2023-02-04T14:14:11;28.02;;;7.20;;
51304;SDS011;37392;50.964;6.952;2023-02-04T14:16:41;35.63;;;8.03;;
51304;SDS011;37392;50.964;6.952;2023-02-04T14:19:10;36.47;;;7.68;;
51304;SDS011;37392;50.964;6.952;2023-02-04T14:21:41;27.65;;;7.30;;
51304;SDS011;37392;50.964;6.952;2023-02-04T14:24:09;39.20;;;8.85;;
51304;SDS011;37392;50.964;6.952;2023-02-04T14:26:34;51.65;;;11.23;;
51304;SDS011;37392;50.964;6.952;2023-02-04T14:29:00;53.78;;;9.77;;
51304;SDS011;37392;50.964;6.952;2023-02-04T14:31:26;46.17;;;9.07;;
51304;SDS011;37392;50.964;6.952;2023-02-04T14:33:51;106.13;;;39.20;;
51304;SDS011;37392;50.964;6.952;2023-02-04T14:41:52;49.28;;;11.38;;
51304;SDS011;37392;50.964;6.952;2023-02-04T14:44:49;39.05;;;9.73;;
51304;SDS011;37392;50.964;6.952;2023-02-04T14:47:21;39.15;;;9.02;;
51304;SDS011;37392;50.964;6.952;2023-02-04T14:50:23;37.13;;;10.32;;
51304;SDS011;37392;50.964;6.952;2023-02-04T14:53:04;39.97;;;9.77;;
51304;SDS011;37392;50.964;6.952;2023-02-04T14:55:57;41.25;;;9.60;;
51304;SDS011;37392;50.964;6.952;2023-02-04T14:59:33;41.40;;;10.07;;
51304;SDS011;37392;50.964;6.952;2023-02-04T15:02:08;44.55;;;9.18;;
51304;SDS011;37392;50.964;6.952;2023-02-04T15:04:59;70.97;;;21.38;;
51304;SDS011;37392;50.964;6.952;2023-02-04T15:07:46;35.65;;;9.70;;
51304;SDS011;37392;50.964;6.952;2023-02-04T15:14:44;36.08;;;9.50;;
51304;SDS011;37392;50.964;6.952;2023-02-04T15:17:49;40.95;;;10.35;;
51304;SDS011;37392;50.964;6.952;2023-02-04T15:20:52;48.83;;;10.80;;
51304;SDS011;37392;50.964;6.952;2023-02-04T15:23:41;32.92;;;9.85;;
51304;SDS011;37392;50.964;6.952;2023-02-04T15:26:08;44.80;;;11.10;;
51304;SDS011;37392;50.964;6.952;2023-02-04T15:28:35;53.92;;;18.90;;
51304;SDS011;37392;50.964;6.952;2023-02-04T15:31:12;37.78;;;9.75;;
51304;SDS011;37392;50.964;6.952;2023-02-04T15:33:38;37.97;;;8.40;;
51304;SDS011;37392;50.964;6.952;2023-02-04T15:36:03;40.45;;;9.00;;
51304;SDS011;37392;50.964;6.952;2023-02-04T15:38:29;45.97;;;12.25;;